Greybull, South Big Horn County Airport (KGEY)

NameSouth Big Horn County Airport
CityGreybull
CountryUnited States
ICAOKGEY
IATAGEY
Altitude1201 m
CoordinatesGoogle Map
Live Air TrafficLiveATC.net
METARKGEY 111853Z AUTO 13009KT 10SM CLR 02/M05 A3004 RMK AO2 SLP207 T00221050
2018-12-11 18:53:00 Wind: East-Southeast (130°) 4.63 m/s - Visibility: 16093.4 m - Temperature: 2 °C - Dew point: -5 °C - Humidity: 60.2% - Pressure: 1017.27 hPa

Sorry, no flights used the airport in this database.